Terminal Aerodrome Forecast
Issued by NWS Duluth, MN

Home | Current Version | Previous Version | Text Only | Print | Product List | Glossary On
Versions: 1 2 3 4 5 6 7 8 9 10 11 12 13 14 15 16 17 18 19 20 21 22 23 24 25 26 27 28 29
000
FTUS43 KDLH 180538
TAFDLH
TAF
KDLH 180538Z 1806/1906 00000KT P6SM SCT080
     FM181500 14009KT P6SM SCT050 BKN100
     FM182000 13009KT P6SM VCSH SCT025 BKN050
     FM190200 11006KT 6SM BR VCSH OVC025=

USA.gov is the U.S. government's official web portal to all federal, state and local government web resources and services.